sensor_id;sensor_type;location;lat;lon;timestamp;P1;durP1;ratioP1;P2;durP2;ratioP2
16352;SDS011;8286;51.274;9.542;2022-12-04T00:01:11;24.53;;;11.27;;
16352;SDS011;8286;51.274;9.542;2022-12-04T00:03:40;21.87;;;10.30;;
16352;SDS011;8286;51.274;9.542;2022-12-04T00:06:09;21.17;;;9.70;;
16352;SDS011;8286;51.274;9.542;2022-12-04T00:08:36;24.63;;;10.43;;
16352;SDS011;8286;51.274;9.542;2022-12-04T00:11:03;22.10;;;10.20;;
16352;SDS011;8286;51.274;9.542;2022-12-04T00:13:30;24.63;;;10.77;;
16352;SDS011;8286;51.274;9.542;2022-12-04T00:15:57;21.23;;;9.60;;
16352;SDS011;8286;51.274;9.542;2022-12-04T00:18:24;23.27;;;10.27;;
16352;SDS011;8286;51.274;9.542;2022-12-04T00:20:51;21.00;;;9.70;;
16352;SDS011;8286;51.274;9.542;2022-12-04T00:23:19;19.63;;;9.63;;
16352;SDS011;8286;51.274;9.542;2022-12-04T00:25:46;22.93;;;10.53;;
16352;SDS011;8286;51.274;9.542;2022-12-04T00:28:13;16.33;;;8.83;;
16352;SDS011;8286;51.274;9.542;2022-12-04T00:30:40;19.43;;;9.30;;
16352;SDS011;8286;51.274;9.542;2022-12-04T00:33:07;19.60;;;8.67;;
16352;SDS011;8286;51.274;9.542;2022-12-04T00:35:34;21.70;;;9.20;;
16352;SDS011;8286;51.274;9.542;2022-12-04T00:38:01;18.40;;;8.33;;
16352;SDS011;8286;51.274;9.542;2022-12-04T00:40:29;16.57;;;7.57;;
16352;SDS011;8286;51.274;9.542;2022-12-04T00:42:55;20.00;;;8.00;;
16352;SDS011;8286;51.274;9.542;2022-12-04T00:45:22;17.70;;;7.67;;
16352;SDS011;8286;51.274;9.542;2022-12-04T00:47:48;27.20;;;11.23;;
16352;SDS011;8286;51.274;9.542;2022-12-04T00:50:15;14.17;;;7.57;;
16352;SDS011;8286;51.274;9.542;2022-12-04T00:52:42;14.10;;;7.70;;
16352;SDS011;8286;51.274;9.542;2022-12-04T00:55:08;14.53;;;7.03;;
16352;SDS011;8286;51.274;9.542;2022-12-04T00:57:36;14.17;;;7.63;;
16352;SDS011;8286;51.274;9.542;2022-12-04T01:00:03;13.30;;;6.60;;
16352;SDS011;8286;51.274;9.542;2022-12-04T01:02:32;15.33;;;6.80;;
16352;SDS011;8286;51.274;9.542;2022-12-04T01:04:59;14.37;;;7.20;;
16352;SDS011;8286;51.274;9.542;2022-12-04T01:07:26;11.97;;;6.30;;
16352;SDS011;8286;51.274;9.542;2022-12-04T01:09:52;18.60;;;8.37;;
16352;SDS011;8286;51.274;9.542;2022-12-04T01:12:19;12.80;;;7.43;;
16352;SDS011;8286;51.274;9.542;2022-12-04T01:14:47;14.00;;;6.53;;
16352;SDS011;8286;51.274;9.542;2022-12-04T01:17:14;13.23;;;6.67;;
16352;SDS011;8286;51.274;9.542;2022-12-04T01:19:41;14.70;;;7.13;;
16352;SDS011;8286;51.274;9.542;2022-12-04T01:22:07;15.20;;;7.63;;
16352;SDS011;8286;51.274;9.542;2022-12-04T01:24:34;11.63;;;6.80;;
16352;SDS011;8286;51.274;9.542;2022-12-04T01:27:00;13.47;;;6.30;;
16352;SDS011;8286;51.274;9.542;2022-12-04T01:29:27;14.17;;;7.13;;
16352;SDS011;8286;51.274;9.542;2022-12-04T01:31:55;13.70;;;6.63;;
16352;SDS011;8286;51.274;9.542;2022-12-04T01:34:21;8.93;;;5.00;;
16352;SDS011;8286;51.274;9.542;2022-12-04T01:36:49;11.50;;;6.03;;
16352;SDS011;8286;51.274;9.542;2022-12-04T01:39:15;11.50;;;5.57;;
16352;SDS011;8286;51.274;9.542;2022-12-04T01:41:42;13.70;;;6.80;;
16352;SDS011;8286;51.274;9.542;2022-12-04T01:44:13;14.13;;;6.43;;
16352;SDS011;8286;51.274;9.542;2022-12-04T01:46:41;14.20;;;7.23;;
16352;SDS011;8286;51.274;9.542;2022-12-04T01:49:11;12.03;;;6.37;;
16352;SDS011;8286;51.274;9.542;2022-12-04T01:51:39;12.77;;;6.53;;
16352;SDS011;8286;51.274;9.542;2022-12-04T01:54:08;11.80;;;6.17;;
16352;SDS011;8286;51.274;9.542;2022-12-04T01:56:37;14.27;;;6.60;;
16352;SDS011;8286;51.274;9.542;2022-12-04T01:59:06;11.23;;;5.20;;
16352;SDS011;8286;51.274;9.542;2022-12-04T02:01:34;9.83;;;5.70;;
16352;SDS011;8286;51.274;9.542;2022-12-04T02:04:04;11.43;;;5.47;;
16352;SDS011;8286;51.274;9.542;2022-12-04T02:06:32;12.20;;;5.77;;
16352;SDS011;8286;51.274;9.542;2022-12-04T02:08:59;12.90;;;6.43;;
16352;SDS011;8286;51.274;9.542;2022-12-04T02:11:26;11.47;;;6.20;;
16352;SDS011;8286;51.274;9.542;2022-12-04T02:14:00;9.20;;;5.03;;
16352;SDS011;8286;51.274;9.542;2022-12-04T02:16:34;12.77;;;6.83;;
16352;SDS011;8286;51.274;9.542;2022-12-04T02:19:06;13.03;;;6.83;;
16352;SDS011;8286;51.274;9.542;2022-12-04T02:21:47;12.70;;;5.30;;
16352;SDS011;8286;51.274;9.542;2022-12-04T02:24:21;13.17;;;5.77;;
16352;SDS011;8286;51.274;9.542;2022-12-04T02:26:57;16.47;;;8.23;;
16352;SDS011;8286;51.274;9.542;2022-12-04T02:29:33;14.13;;;6.90;;
16352;SDS011;8286;51.274;9.542;2022-12-04T02:32:04;15.07;;;6.93;;
16352;SDS011;8286;51.274;9.542;2022-12-04T02:34:37;13.70;;;6.73;;
16352;SDS011;8286;51.274;9.542;2022-12-04T02:37:07;11.77;;;5.90;;
16352;SDS011;8286;51.274;9.542;2022-12-04T02:39:36;16.43;;;6.67;;
16352;SDS011;8286;51.274;9.542;2022-12-04T02:42:07;15.83;;;6.67;;
16352;SDS011;8286;51.274;9.542;2022-12-04T02:44:38;12.37;;;6.30;;
16352;SDS011;8286;51.274;9.542;2022-12-04T02:47:08;16.03;;;7.13;;
16352;SDS011;8286;51.274;9.542;2022-12-04T02:49:38;15.63;;;7.57;;
16352;SDS011;8286;51.274;9.542;2022-12-04T02:52:07;15.20;;;7.17;;
16352;SDS011;8286;51.274;9.542;2022-12-04T02:54:37;16.73;;;7.13;;
16352;SDS011;8286;51.274;9.542;2022-12-04T02:57:05;17.13;;;7.77;;
16352;SDS011;8286;51.274;9.542;2022-12-04T02:59:35;15.37;;;6.97;;
16352;SDS011;8286;51.274;9.542;2022-12-04T03:02:06;13.00;;;6.87;;
16352;SDS011;8286;51.274;9.542;2022-12-04T03:04:35;16.23;;;7.27;;
16352;SDS011;8286;51.274;9.542;2022-12-04T03:07:04;17.73;;;8.23;;
16352;SDS011;8286;51.274;9.542;2022-12-04T03:09:35;14.80;;;7.17;;
16352;SDS011;8286;51.274;9.542;2022-12-04T03:12:05;17.67;;;7.23;;
16352;SDS011;8286;51.274;9.542;2022-12-04T03:14:36;16.13;;;7.33;;
16352;SDS011;8286;51.274;9.542;2022-12-04T03:17:08;16.00;;;7.60;;
16352;SDS011;8286;51.274;9.542;2022-12-04T03:19:38;19.27;;;8.60;;
16352;SDS011;8286;51.274;9.542;2022-12-04T03:22:08;19.80;;;7.80;;
16352;SDS011;8286;51.274;9.542;2022-12-04T03:24:36;18.03;;;7.93;;
16352;SDS011;8286;51.274;9.542;2022-12-04T03:27:05;17.47;;;8.00;;
16352;SDS011;8286;51.274;9.542;2022-12-04T03:29:37;16.00;;;8.10;;
16352;SDS011;8286;51.274;9.542;2022-12-04T03:32:08;19.80;;;8.57;;
16352;SDS011;8286;51.274;9.542;2022-12-04T03:34:37;21.20;;;8.33;;
16352;SDS011;8286;51.274;9.542;2022-12-04T03:37:07;16.67;;;8.67;;
16352;SDS011;8286;51.274;9.542;2022-12-04T03:39:37;16.40;;;7.70;;
16352;SDS011;8286;51.274;9.542;2022-12-04T03:42:11;18.57;;;8.60;;
16352;SDS011;8286;51.274;9.542;2022-12-04T03:44:42;19.80;;;9.07;;
16352;SDS011;8286;51.274;9.542;2022-12-04T03:47:12;19.00;;;8.80;;
16352;SDS011;8286;51.274;9.542;2022-12-04T03:49:42;13.47;;;7.83;;
16352;SDS011;8286;51.274;9.542;2022-12-04T03:52:13;18.47;;;8.30;;
16352;SDS011;8286;51.274;9.542;2022-12-04T03:54:43;13.97;;;7.37;;
16352;SDS011;8286;51.274;9.542;2022-12-04T03:57:13;19.80;;;7.87;;
16352;SDS011;8286;51.274;9.542;2022-12-04T03:59:44;19.10;;;7.30;;
16352;SDS011;8286;51.274;9.542;2022-12-04T04:02:13;16.43;;;8.37;;
16352;SDS011;8286;51.274;9.542;2022-12-04T04:04:42;18.37;;;8.73;;
16352;SDS011;8286;51.274;9.542;2022-12-04T04:07:13;20.30;;;8.00;;
16352;SDS011;8286;51.274;9.542;2022-12-04T04:09:42;17.93;;;8.77;;
16352;SDS011;8286;51.274;9.542;2022-12-04T04:12:12;18.50;;;8.00;;
16352;SDS011;8286;51.274;9.542;2022-12-04T04:14:41;21.80;;;7.57;;
16352;SDS011;8286;51.274;9.542;2022-12-04T04:17:32;19.63;;;7.93;;
16352;SDS011;8286;51.274;9.542;2022-12-04T04:20:29;16.27;;;7.53;;
16352;SDS011;8286;51.274;9.542;2022-12-04T04:23:16;15.40;;;7.67;;
16352;SDS011;8286;51.274;9.542;2022-12-04T04:26:01;16.50;;;7.27;;
16352;SDS011;8286;51.274;9.542;2022-12-04T04:28:29;15.50;;;6.97;;
16352;SDS011;8286;51.274;9.542;2022-12-04T04:31:00;19.13;;;7.63;;
16352;SDS011;8286;51.274;9.542;2022-12-04T04:33:31;20.20;;;7.93;;
16352;SDS011;8286;51.274;9.542;2022-12-04T04:36:02;19.03;;;7.57;;
16352;SDS011;8286;51.274;9.542;2022-12-04T04:38:34;16.70;;;8.67;;
16352;SDS011;8286;51.274;9.542;2022-12-04T04:41:03;16.90;;;7.87;;
16352;SDS011;8286;51.274;9.542;2022-12-04T04:43:36;20.03;;;8.53;;
16352;SDS011;8286;51.274;9.542;2022-12-04T04:46:07;14.20;;;7.53;;
16352;SDS011;8286;51.274;9.542;2022-12-04T04:48:38;14.17;;;7.57;;
16352;SDS011;8286;51.274;9.542;2022-12-04T04:51:06;17.43;;;7.50;;
16352;SDS011;8286;51.274;9.542;2022-12-04T04:53:34;18.90;;;8.77;;
16352;SDS011;8286;51.274;9.542;2022-12-04T04:56:03;18.20;;;6.53;;
16352;SDS011;8286;51.274;9.542;2022-12-04T04:58:31;15.67;;;7.63;;
16352;SDS011;8286;51.274;9.542;2022-12-04T05:00:59;17.53;;;8.50;;
16352;SDS011;8286;51.274;9.542;2022-12-04T05:03:29;16.03;;;8.03;;
16352;SDS011;8286;51.274;9.542;2022-12-04T05:05:56;18.50;;;6.90;;
16352;SDS011;8286;51.274;9.542;2022-12-04T05:08:22;14.33;;;7.27;;
16352;SDS011;8286;51.274;9.542;2022-12-04T05:10:50;13.87;;;7.43;;
16352;SDS011;8286;51.274;9.542;2022-12-04T05:13:17;17.30;;;7.90;;
16352;SDS011;8286;51.274;9.542;2022-12-04T05:15:44;18.60;;;8.07;;
16352;SDS011;8286;51.274;9.542;2022-12-04T05:18:21;18.33;;;8.20;;
16352;SDS011;8286;51.274;9.542;2022-12-04T05:20:49;21.40;;;9.17;;
16352;SDS011;8286;51.274;9.542;2022-12-04T05:23:14;17.90;;;8.00;;
16352;SDS011;8286;51.274;9.542;2022-12-04T05:25:41;17.07;;;7.10;;
16352;SDS011;8286;51.274;9.542;2022-12-04T05:28:07;15.70;;;6.80;;
16352;SDS011;8286;51.274;9.542;2022-12-04T05:30:34;17.13;;;8.00;;
16352;SDS011;8286;51.274;9.542;2022-12-04T05:33:01;16.70;;;7.13;;
16352;SDS011;8286;51.274;9.542;2022-12-04T05:35:27;18.73;;;7.97;;
16352;SDS011;8286;51.274;9.542;2022-12-04T05:37:55;15.40;;;8.37;;
16352;SDS011;8286;51.274;9.542;2022-12-04T05:40:22;15.60;;;7.97;;
16352;SDS011;8286;51.274;9.542;2022-12-04T05:42:49;15.40;;;6.80;;
16352;SDS011;8286;51.274;9.542;2022-12-04T05:45:15;14.70;;;7.37;;
16352;SDS011;8286;51.274;9.542;2022-12-04T05:47:42;15.07;;;7.33;;
16352;SDS011;8286;51.274;9.542;2022-12-04T05:50:10;18.63;;;8.20;;
16352;SDS011;8286;51.274;9.542;2022-12-04T05:52:37;16.27;;;7.80;;
16352;SDS011;8286;51.274;9.542;2022-12-04T05:55:06;14.90;;;6.83;;
16352;SDS011;8286;51.274;9.542;2022-12-04T05:57:33;16.07;;;7.27;;
16352;SDS011;8286;51.274;9.542;2022-12-04T05:59:59;14.53;;;7.33;;
16352;SDS011;8286;51.274;9.542;2022-12-04T06:02:26;15.87;;;7.20;;
16352;SDS011;8286;51.274;9.542;2022-12-04T06:04:53;15.43;;;7.30;;
16352;SDS011;8286;51.274;9.542;2022-12-04T06:07:19;16.70;;;8.10;;
16352;SDS011;8286;51.274;9.542;2022-12-04T06:09:46;15.43;;;7.30;;
16352;SDS011;8286;51.274;9.542;2022-12-04T06:12:14;15.83;;;7.53;;
16352;SDS011;8286;51.274;9.542;2022-12-04T06:14:41;12.17;;;6.80;;
16352;SDS011;8286;51.274;9.542;2022-12-04T06:17:07;13.63;;;6.93;;
16352;SDS011;8286;51.274;9.542;2022-12-04T06:19:34;12.37;;;6.33;;
16352;SDS011;8286;51.274;9.542;2022-12-04T06:22:01;15.63;;;7.13;;
16352;SDS011;8286;51.274;9.542;2022-12-04T06:24:27;15.07;;;6.87;;
16352;SDS011;8286;51.274;9.542;2022-12-04T06:26:54;14.70;;;6.53;;
16352;SDS011;8286;51.274;9.542;2022-12-04T06:29:23;17.17;;;7.07;;
16352;SDS011;8286;51.274;9.542;2022-12-04T06:31:49;11.37;;;6.43;;
16352;SDS011;8286;51.274;9.542;2022-12-04T06:34:16;15.80;;;6.47;;
16352;SDS011;8286;51.274;9.542;2022-12-04T06:36:42;12.50;;;6.53;;
16352;SDS011;8286;51.274;9.542;2022-12-04T06:39:09;15.67;;;6.90;;
16352;SDS011;8286;51.274;9.542;2022-12-04T06:41:36;13.53;;;6.87;;
16352;SDS011;8286;51.274;9.542;2022-12-04T06:44:02;14.03;;;7.43;;
16352;SDS011;8286;51.274;9.542;2022-12-04T06:46:31;14.33;;;7.23;;
16352;SDS011;8286;51.274;9.542;2022-12-04T06:48:59;18.27;;;7.77;;
16352;SDS011;8286;51.274;9.542;2022-12-04T06:51:27;15.87;;;7.33;;
16352;SDS011;8286;51.274;9.542;2022-12-04T06:53:55;14.13;;;6.90;;
16352;SDS011;8286;51.274;9.542;2022-12-04T06:56:22;15.47;;;7.10;;
16352;SDS011;8286;51.274;9.542;2022-12-04T06:58:51;11.63;;;6.63;;
16352;SDS011;8286;51.274;9.542;2022-12-04T07:01:19;13.83;;;5.97;;
16352;SDS011;8286;51.274;9.542;2022-12-04T07:03:49;12.73;;;6.70;;
16352;SDS011;8286;51.274;9.542;2022-12-04T07:06:17;10.33;;;6.73;;
16352;SDS011;8286;51.274;9.542;2022-12-04T07:08:44;17.07;;;7.13;;
16352;SDS011;8286;51.274;9.542;2022-12-04T07:11:12;15.00;;;7.87;;
16352;SDS011;8286;51.274;9.542;2022-12-04T07:13:39;16.17;;;7.93;;
16352;SDS011;8286;51.274;9.542;2022-12-04T07:16:07;14.97;;;7.57;;
16352;SDS011;8286;51.274;9.542;2022-12-04T07:18:35;16.10;;;8.47;;
16352;SDS011;8286;51.274;9.542;2022-12-04T07:21:05;16.63;;;7.40;;
16352;SDS011;8286;51.274;9.542;2022-12-04T07:23:32;13.73;;;7.77;;
16352;SDS011;8286;51.274;9.542;2022-12-04T07:26:02;16.80;;;7.93;;
16352;SDS011;8286;51.274;9.542;2022-12-04T07:28:29;15.03;;;6.93;;
16352;SDS011;8286;51.274;9.542;2022-12-04T07:30:56;17.97;;;9.30;;
16352;SDS011;8286;51.274;9.542;2022-12-04T07:33:23;17.57;;;9.03;;
16352;SDS011;8286;51.274;9.542;2022-12-04T07:35:53;18.90;;;8.47;;
16352;SDS011;8286;51.274;9.542;2022-12-04T07:38:21;16.60;;;9.40;;
16352;SDS011;8286;51.274;9.542;2022-12-04T07:40:48;19.10;;;9.40;;
16352;SDS011;8286;51.274;9.542;2022-12-04T07:43:15;13.03;;;7.93;;
16352;SDS011;8286;51.274;9.542;2022-12-04T07:45:41;20.90;;;9.73;;
16352;SDS011;8286;51.274;9.542;2022-12-04T07:48:08;19.63;;;8.80;;
16352;SDS011;8286;51.274;9.542;2022-12-04T07:50:34;18.40;;;8.37;;
16352;SDS011;8286;51.274;9.542;2022-12-04T07:53:01;15.93;;;8.37;;
16352;SDS011;8286;51.274;9.542;2022-12-04T07:55:29;14.77;;;7.97;;
16352;SDS011;8286;51.274;9.542;2022-12-04T07:57:55;14.47;;;7.47;;
16352;SDS011;8286;51.274;9.542;2022-12-04T08:00:22;17.67;;;8.47;;
16352;SDS011;8286;51.274;9.542;2022-12-04T08:02:49;18.33;;;8.37;;
16352;SDS011;8286;51.274;9.542;2022-12-04T08:05:16;17.53;;;7.83;;
16352;SDS011;8286;51.274;9.542;2022-12-04T08:07:42;18.93;;;8.40;;
16352;SDS011;8286;51.274;9.542;2022-12-04T08:10:09;19.23;;;8.53;;
16352;SDS011;8286;51.274;9.542;2022-12-04T08:12:37;16.07;;;8.83;;
16352;SDS011;8286;51.274;9.542;2022-12-04T08:15:04;16.10;;;8.67;;
16352;SDS011;8286;51.274;9.542;2022-12-04T08:17:31;19.93;;;8.13;;
16352;SDS011;8286;51.274;9.542;2022-12-04T08:19:58;18.73;;;8.53;;
16352;SDS011;8286;51.274;9.542;2022-12-04T08:22:25;20.83;;;9.50;;
16352;SDS011;8286;51.274;9.542;2022-12-04T08:24:51;16.17;;;8.37;;
16352;SDS011;8286;51.274;9.542;2022-12-04T08:27:18;18.80;;;8.30;;
16352;SDS011;8286;51.274;9.542;2022-12-04T08:29:46;22.23;;;9.80;;
16352;SDS011;8286;51.274;9.542;2022-12-04T08:32:13;20.27;;;9.37;;
16352;SDS011;8286;51.274;9.542;2022-12-04T08:34:39;16.07;;;8.00;;
16352;SDS011;8286;51.274;9.542;2022-12-04T08:37:06;18.83;;;8.87;;
16352;SDS011;8286;51.274;9.542;2022-12-04T08:39:33;19.27;;;8.53;;
16352;SDS011;8286;51.274;9.542;2022-12-04T08:42:00;22.17;;;9.10;;
16352;SDS011;8286;51.274;9.542;2022-12-04T08:44:26;17.70;;;9.07;;
16352;SDS011;8286;51.274;9.542;2022-12-04T08:46:54;16.57;;;8.43;;
16352;SDS011;8286;51.274;9.542;2022-12-04T08:49:21;23.90;;;9.27;;
16352;SDS011;8286;51.274;9.542;2022-12-04T08:51:47;16.67;;;9.40;;
16352;SDS011;8286;51.274;9.542;2022-12-04T08:54:14;16.40;;;8.97;;
16352;SDS011;8286;51.274;9.542;2022-12-04T08:56:40;18.43;;;8.90;;
16352;SDS011;8286;51.274;9.542;2022-12-04T08:59:08;20.53;;;8.77;;
16352;SDS011;8286;51.274;9.542;2022-12-04T09:01:37;21.83;;;11.10;;
16352;SDS011;8286;51.274;9.542;2022-12-04T09:04:05;21.33;;;10.00;;
16352;SDS011;8286;51.274;9.542;2022-12-04T09:06:32;17.10;;;8.90;;
16352;SDS011;8286;51.274;9.542;2022-12-04T09:08:58;22.47;;;10.33;;
16352;SDS011;8286;51.274;9.542;2022-12-04T09:11:26;21.47;;;9.97;;
16352;SDS011;8286;51.274;9.542;2022-12-04T09:13:54;18.03;;;9.10;;
16352;SDS011;8286;51.274;9.542;2022-12-04T09:16:21;21.77;;;10.50;;
16352;SDS011;8286;51.274;9.542;2022-12-04T09:18:49;25.77;;;10.30;;
16352;SDS011;8286;51.274;9.542;2022-12-04T09:21:17;20.23;;;9.70;;
16352;SDS011;8286;51.274;9.542;2022-12-04T09:23:45;21.27;;;10.60;;
16352;SDS011;8286;51.274;9.542;2022-12-04T09:26:15;22.70;;;10.27;;
16352;SDS011;8286;51.274;9.542;2022-12-04T09:28:44;22.43;;;10.67;;
16352;SDS011;8286;51.274;9.542;2022-12-04T09:31:10;20.50;;;10.00;;
16352;SDS011;8286;51.274;9.542;2022-12-04T09:33:37;22.83;;;9.57;;
16352;SDS011;8286;51.274;9.542;2022-12-04T09:36:04;22.67;;;10.97;;
16352;SDS011;8286;51.274;9.542;2022-12-04T09:38:32;20.90;;;9.50;;
16352;SDS011;8286;51.274;9.542;2022-12-04T09:41:00;25.57;;;11.53;;
16352;SDS011;8286;51.274;9.542;2022-12-04T09:43:31;19.97;;;9.87;;
16352;SDS011;8286;51.274;9.542;2022-12-04T09:46:01;17.60;;;9.87;;
16352;SDS011;8286;51.274;9.542;2022-12-04T09:48:32;20.47;;;9.97;;
16352;SDS011;8286;51.274;9.542;2022-12-04T09:51:00;20.03;;;9.70;;
16352;SDS011;8286;51.274;9.542;2022-12-04T09:53:27;23.03;;;9.60;;
16352;SDS011;8286;51.274;9.542;2022-12-04T09:56:01;18.97;;;9.67;;
16352;SDS011;8286;51.274;9.542;2022-12-04T09:58:31;20.90;;;8.90;;
16352;SDS011;8286;51.274;9.542;2022-12-04T10:01:01;20.13;;;9.57;;
16352;SDS011;8286;51.274;9.542;2022-12-04T10:03:29;19.80;;;9.23;;
16352;SDS011;8286;51.274;9.542;2022-12-04T10:05:57;18.20;;;9.27;;
16352;SDS011;8286;51.274;9.542;2022-12-04T10:08:27;19.27;;;8.97;;
16352;SDS011;8286;51.274;9.542;2022-12-04T10:10:57;23.27;;;10.90;;
16352;SDS011;8286;51.274;9.542;2022-12-04T10:13:37;22.13;;;10.50;;
16352;SDS011;8286;51.274;9.542;2022-12-04T10:16:10;20.63;;;9.27;;
16352;SDS011;8286;51.274;9.542;2022-12-04T10:18:43;18.40;;;9.97;;
16352;SDS011;8286;51.274;9.542;2022-12-04T10:21:22;21.17;;;10.83;;
16352;SDS011;8286;51.274;9.542;2022-12-04T10:23:58;19.03;;;9.57;;
16352;SDS011;8286;51.274;9.542;2022-12-04T10:26:33;21.27;;;9.70;;
16352;SDS011;8286;51.274;9.542;2022-12-04T10:29:02;21.70;;;9.40;;
16352;SDS011;8286;51.274;9.542;2022-12-04T10:31:30;20.33;;;9.33;;
16352;SDS011;8286;51.274;9.542;2022-12-04T10:34:00;20.63;;;9.47;;
16352;SDS011;8286;51.274;9.542;2022-12-04T10:36:32;22.63;;;9.97;;
16352;SDS011;8286;51.274;9.542;2022-12-04T10:39:01;24.20;;;9.23;;
16352;SDS011;8286;51.274;9.542;2022-12-04T10:41:34;20.90;;;10.10;;
16352;SDS011;8286;51.274;9.542;2022-12-04T10:44:04;19.83;;;9.67;;
16352;SDS011;8286;51.274;9.542;2022-12-04T10:46:32;19.93;;;9.70;;
16352;SDS011;8286;51.274;9.542;2022-12-04T10:49:00;22.37;;;10.07;;
16352;SDS011;8286;51.274;9.542;2022-12-04T10:51:30;22.07;;;10.30;;
16352;SDS011;8286;51.274;9.542;2022-12-04T10:54:00;22.33;;;10.90;;
16352;SDS011;8286;51.274;9.542;2022-12-04T10:56:27;23.27;;;11.33;;
16352;SDS011;8286;51.274;9.542;2022-12-04T10:58:56;21.03;;;9.83;;
16352;SDS011;8286;51.274;9.542;2022-12-04T11:01:24;18.53;;;9.87;;
16352;SDS011;8286;51.274;9.542;2022-12-04T11:03:54;23.00;;;9.53;;
16352;SDS011;8286;51.274;9.542;2022-12-04T11:06:24;24.23;;;9.77;;
16352;SDS011;8286;51.274;9.542;2022-12-04T11:08:51;24.17;;;11.00;;
16352;SDS011;8286;51.274;9.542;2022-12-04T11:11:21;22.77;;;9.93;;
16352;SDS011;8286;51.274;9.542;2022-12-04T11:13:58;19.07;;;9.43;;
16352;SDS011;8286;51.274;9.542;2022-12-04T11:16:31;23.87;;;11.83;;
16352;SDS011;8286;51.274;9.542;2022-12-04T11:18:59;18.53;;;9.10;;
16352;SDS011;8286;51.274;9.542;2022-12-04T11:21:27;19.70;;;10.40;;
16352;SDS011;8286;51.274;9.542;2022-12-04T11:23:54;20.73;;;10.10;;
16352;SDS011;8286;51.274;9.542;2022-12-04T11:26:28;30.80;;;11.90;;
16352;SDS011;8286;51.274;9.542;2022-12-04T11:28:55;19.40;;;9.77;;
16352;SDS011;8286;51.274;9.542;2022-12-04T11:31:26;24.53;;;10.37;;
16352;SDS011;8286;51.274;9.542;2022-12-04T11:33:54;22.57;;;9.73;;
16352;SDS011;8286;51.274;9.542;2022-12-04T11:36:23;18.90;;;9.93;;
16352;SDS011;8286;51.274;9.542;2022-12-04T11:38:52;23.47;;;10.00;;
16352;SDS011;8286;51.274;9.542;2022-12-04T11:41:22;21.83;;;9.93;;
16352;SDS011;8286;51.274;9.542;2022-12-04T11:43:50;20.50;;;10.73;;
16352;SDS011;8286;51.274;9.542;2022-12-04T11:46:18;18.97;;;10.17;;
16352;SDS011;8286;51.274;9.542;2022-12-04T11:48:50;23.73;;;10.73;;
16352;SDS011;8286;51.274;9.542;2022-12-04T11:51:18;22.97;;;11.10;;
16352;SDS011;8286;51.274;9.542;2022-12-04T11:53:51;25.90;;;12.60;;
16352;SDS011;8286;51.274;9.542;2022-12-04T11:56:24;31.07;;;14.80;;
16352;SDS011;8286;51.274;9.542;2022-12-04T11:59:13;26.83;;;13.47;;
16352;SDS011;8286;51.274;9.542;2022-12-04T12:01:49;27.10;;;11.90;;
16352;SDS011;8286;51.274;9.542;2022-12-04T12:04:22;24.90;;;11.13;;
16352;SDS011;8286;51.274;9.542;2022-12-04T12:07:11;23.60;;;12.23;;
16352;SDS011;8286;51.274;9.542;2022-12-04T12:09:45;23.07;;;10.63;;
16352;SDS011;8286;51.274;9.542;2022-12-04T12:12:16;20.43;;;10.30;;
16352;SDS011;8286;51.274;9.542;2022-12-04T12:14:49;21.10;;;10.17;;
16352;SDS011;8286;51.274;9.542;2022-12-04T12:17:22;23.07;;;10.30;;
16352;SDS011;8286;51.274;9.542;2022-12-04T12:19:58;20.43;;;10.20;;
16352;SDS011;8286;51.274;9.542;2022-12-04T12:22:37;19.47;;;9.57;;
16352;SDS011;8286;51.274;9.542;2022-12-04T12:25:10;18.83;;;10.47;;
16352;SDS011;8286;51.274;9.542;2022-12-04T12:27:45;22.47;;;11.53;;
16352;SDS011;8286;51.274;9.542;2022-12-04T12:30:24;21.00;;;10.80;;
16352;SDS011;8286;51.274;9.542;2022-12-04T12:32:56;18.43;;;9.60;;
16352;SDS011;8286;51.274;9.542;2022-12-04T12:35:29;22.07;;;10.53;;
16352;SDS011;8286;51.274;9.542;2022-12-04T12:38:03;21.67;;;10.23;;
16352;SDS011;8286;51.274;9.542;2022-12-04T12:40:32;22.90;;;11.40;;
16352;SDS011;8286;51.274;9.542;2022-12-04T12:43:03;24.47;;;10.97;;
16352;SDS011;8286;51.274;9.542;2022-12-04T12:45:33;24.30;;;13.30;;
16352;SDS011;8286;51.274;9.542;2022-12-04T12:48:07;25.67;;;11.83;;
16352;SDS011;8286;51.274;9.542;2022-12-04T12:50:42;22.07;;;11.20;;
16352;SDS011;8286;51.274;9.542;2022-12-04T12:53:10;24.07;;;11.77;;
16352;SDS011;8286;51.274;9.542;2022-12-04T12:55:39;23.40;;;11.03;;
16352;SDS011;8286;51.274;9.542;2022-12-04T12:58:09;21.10;;;11.03;;
16352;SDS011;8286;51.274;9.542;2022-12-04T13:00:41;26.83;;;12.53;;
16352;SDS011;8286;51.274;9.542;2022-12-04T13:03:15;19.17;;;10.37;;
16352;SDS011;8286;51.274;9.542;2022-12-04T13:05:50;21.20;;;10.97;;
16352;SDS011;8286;51.274;9.542;2022-12-04T13:08:20;20.70;;;10.30;;
16352;SDS011;8286;51.274;9.542;2022-12-04T13:10:49;20.50;;;9.57;;
16352;SDS011;8286;51.274;9.542;2022-12-04T13:13:22;21.43;;;10.37;;
16352;SDS011;8286;51.274;9.542;2022-12-04T13:15:51;22.60;;;10.77;;
16352;SDS011;8286;51.274;9.542;2022-12-04T13:18:21;26.70;;;10.37;;
16352;SDS011;8286;51.274;9.542;2022-12-04T13:20:51;24.90;;;11.57;;
16352;SDS011;8286;51.274;9.542;2022-12-04T13:23:25;22.03;;;10.77;;
16352;SDS011;8286;51.274;9.542;2022-12-04T13:26:01;19.40;;;10.87;;
16352;SDS011;8286;51.274;9.542;2022-12-04T13:28:41;24.07;;;11.00;;
16352;SDS011;8286;51.274;9.542;2022-12-04T13:31:39;24.27;;;10.87;;
16352;SDS011;8286;51.274;9.542;2022-12-04T13:34:14;21.47;;;10.57;;
16352;SDS011;8286;51.274;9.542;2022-12-04T13:36:54;25.57;;;12.00;;
16352;SDS011;8286;51.274;9.542;2022-12-04T13:42:32;21.27;;;9.23;;
16352;SDS011;8286;51.274;9.542;2022-12-04T13:44:59;22.17;;;11.20;;
16352;SDS011;8286;51.274;9.542;2022-12-04T13:47:31;22.43;;;11.50;;
16352;SDS011;8286;51.274;9.542;2022-12-04T13:50:06;22.50;;;10.93;;
16352;SDS011;8286;51.274;9.542;2022-12-04T13:52:37;24.23;;;10.20;;
16352;SDS011;8286;51.274;9.542;2022-12-04T13:57:55;27.47;;;11.67;;
16352;SDS011;8286;51.274;9.542;2022-12-04T14:00:23;21.90;;;11.20;;
16352;SDS011;8286;51.274;9.542;2022-12-04T14:02:52;21.17;;;11.07;;
16352;SDS011;8286;51.274;9.542;2022-12-04T14:05:24;22.27;;;10.47;;
16352;SDS011;8286;51.274;9.542;2022-12-04T14:08:04;24.70;;;10.10;;
16352;SDS011;8286;51.274;9.542;2022-12-04T14:10:33;25.57;;;10.57;;
16352;SDS011;8286;51.274;9.542;2022-12-04T14:13:02;21.40;;;10.40;;
16352;SDS011;8286;51.274;9.542;2022-12-04T14:15:31;23.83;;;11.73;;
16352;SDS011;8286;51.274;9.542;2022-12-04T14:18:00;22.17;;;11.73;;
16352;SDS011;8286;51.274;9.542;2022-12-04T14:20:29;23.67;;;11.10;;
16352;SDS011;8286;51.274;9.542;2022-12-04T14:23:07;23.87;;;11.13;;
16352;SDS011;8286;51.274;9.542;2022-12-04T14:25:35;23.97;;;9.73;;
16352;SDS011;8286;51.274;9.542;2022-12-04T14:28:20;27.00;;;11.57;;
16352;SDS011;8286;51.274;9.542;2022-12-04T14:30:56;24.13;;;10.37;;
16352;SDS011;8286;51.274;9.542;2022-12-04T14:33:28;21.97;;;10.47;;
16352;SDS011;8286;51.274;9.542;2022-12-04T14:35:57;24.10;;;11.77;;
16352;SDS011;8286;51.274;9.542;2022-12-04T14:38:27;24.20;;;11.07;;
16352;SDS011;8286;51.274;9.542;2022-12-04T14:40:54;20.93;;;10.57;;
16352;SDS011;8286;51.274;9.542;2022-12-04T14:43:23;28.07;;;12.70;;
16352;SDS011;8286;51.274;9.542;2022-12-04T14:45:52;24.03;;;11.77;;
16352;SDS011;8286;51.274;9.542;2022-12-04T14:48:24;20.27;;;10.70;;
16352;SDS011;8286;51.274;9.542;2022-12-04T14:50:58;23.77;;;11.53;;
16352;SDS011;8286;51.274;9.542;2022-12-04T14:53:34;20.50;;;11.13;;
16352;SDS011;8286;51.274;9.542;2022-12-04T14:56:05;19.90;;;10.17;;
16352;SDS011;8286;51.274;9.542;2022-12-04T14:58:42;25.03;;;11.93;;
16352;SDS011;8286;51.274;9.542;2022-12-04T15:01:17;22.93;;;10.93;;
16352;SDS011;8286;51.274;9.542;2022-12-04T15:03:46;24.43;;;10.87;;